Loggieville, Canada
Current Conditions -  °F | °C
As of 9:00 AM on Thursday 23 Oct 2014 (Local Time) from CZBF Reporting Station
Overcast Overcast  
Wind Chill: 37°   Ceiling: 2000
Heat Index: 43°   Visibility: 15mi
Dew Point: 39°   Wind: 10mph
Humidity: 87%   Direction: 60°ENE
Pressure: 30.31"   Gusts: NA
Location:  47.07°N, 65.38°W
Report Text: CZBF 231200Z 06009KT 15SM OVC020 06/04 A3031 RMK SC8 SLP265
Loading
Personal Weather Stations






























Interactive Weather Map
Tropical Storm Tracking
New forecast layout! Learn more

10-Day Weather Forecast

Advertisements
Track Severe Weather on mobile